Time;durP1;ratioP1;P1;durP2;ratioP2;P2;SDS_P1;SDS_P2;PMS_P1;PMS_P2;Temp;Humidity;BMP_temperature;BMP_pressure;BME280_temperature;BME280_humidity;BME280_pressure;Samples;Min_cycle;Max_cycle;Signal;HPM_P1;HPM_P2
2022/08/05 00:02:05;;;;;;;4.53;2.47;;;23.20;83.30;;;;;;5064631;28;20221;-65
2022/08/05 00:04:33;;;;;;;4.93;2.85;;;23.30;83.70;;;;;;5053540;28;20240;-65
2022/08/05 00:07:00;;;;;;;4.50;2.70;;;23.20;83.70;;;;;;5053785;28;20198;-65
2022/08/05 00:09:27;;;;;;;3.40;3.10;;;23.20;83.90;;;;;;5055388;28;20217;-64
2022/08/05 00:11:53;;;;;;;5.60;3.15;;;23.20;84.20;;;;;;5052679;28;20208;-65
2022/08/05 00:14:20;;;;;;;5.15;3.10;;;23.10;84.30;;;;;;5051829;28;20210;-64
2022/08/05 00:16:47;;;;;;;4.28;3.17;;;23.10;84.50;;;;;;5052817;28;20225;-65
2022/08/05 00:19:13;;;;;;;4.32;3.20;;;23.10;84.80;;;;;;5054566;28;20225;-65
2022/08/05 00:21:42;;;;;;;4.07;2.97;;;23.00;85.00;;;;;;5055662;28;20217;-65
2022/08/05 00:24:08;;;;;;;3.67;3.13;;;23.00;85.10;;;;;;5051366;28;20205;-65
2022/08/05 00:26:35;;;;;;;3.45;2.97;;;23.00;85.50;;;;;;5053120;28;20328;-64
2022/08/05 00:29:02;;;;;;;4.07;2.80;;;23.00;85.90;;;;;;5055534;28;20653;-65
2022/08/05 00:31:29;;;;;;;3.60;3.30;;;22.90;85.90;;;;;;5058525;28;20206;-65
2022/08/05 00:33:55;;;;;;;4.80;3.50;;;22.90;86.30;;;;;;5050738;28;20206;-65
2022/08/05 00:36:23;;;;;;;3.80;3.38;;;22.90;86.60;;;;;;5054482;28;21008;-65
2022/08/05 00:38:51;;;;;;;5.00;3.55;;;22.80;86.80;;;;;;5064547;28;20232;-64
2022/08/05 00:41:28;;;;;;;5.40;3.28;;;22.80;87.10;;;;;;5067156;28;20205;-64
2022/08/05 00:43:55;;;;;;;5.65;3.58;;;22.70;87.30;;;;;;5068851;28;20584;-65
2022/08/05 00:46:22;;;;;;;5.72;3.10;;;22.70;87.50;;;;;;5059345;28;20280;-65
2022/08/05 00:48:49;;;;;;;4.78;3.28;;;22.70;87.70;;;;;;5056963;28;20200;-64
2022/08/05 00:51:15;;;;;;;7.13;3.83;;;22.70;88.10;;;;;;5058131;28;20557;-65
2022/08/05 00:53:42;;;;;;;4.03;3.55;;;22.60;88.20;;;;;;5050817;28;20213;-64
2022/08/05 00:56:11;;;;;;;6.10;3.33;;;22.60;88.30;;;;;;5061195;28;20589;-65
2022/08/05 00:58:38;;;;;;;5.30;3.45;;;22.60;88.80;;;;;;5050558;28;20317;-64
2022/08/05 01:01:05;;;;;;;5.15;3.55;;;22.50;88.90;;;;;;5059805;28;20260;-65
2022/08/05 01:03:32;;;;;;;4.05;3.60;;;22.50;89.30;;;;;;5068706;28;20213;-64
2022/08/05 01:05:59;;;;;;;5.05;3.85;;;22.50;89.50;;;;;;5063773;28;20244;-65
2022/08/05 01:08:26;;;;;;;4.72;3.63;;;22.50;89.80;;;;;;5050627;28;20206;-65
2022/08/05 01:10:55;;;;;;;3.78;3.28;;;22.40;90.00;;;;;;5059182;28;20205;-65
2022/08/05 01:13:31;;;;;;;4.30;3.75;;;22.40;90.20;;;;;;5064782;28;20725;-64
2022/08/05 01:16:00;;;;;;;4.13;3.63;;;22.40;90.20;;;;;;5052404;28;20229;-65
2022/08/05 01:18:32;;;;;;;3.90;3.25;;;22.40;90.30;;;;;;5064565;28;20249;-64
2022/08/05 01:21:07;;;;;;;3.47;3.00;;;22.40;90.50;;;;;;5057486;28;20669;-64
2022/08/05 01:23:52;;;;;;;6.13;3.45;;;22.30;90.50;;;;;;5062187;28;20205;-64
2022/08/05 01:26:43;;;;;;;3.85;3.20;;;22.40;90.60;;;;;;5055299;28;20736;-65
2022/08/05 01:29:17;;;;;;;3.75;3.10;;;22.40;90.70;;;;;;5055449;28;20201;-65
2022/08/05 01:31:47;;;;;;;3.90;3.50;;;22.40;90.70;;;;;;5059466;28;20206;-64
2022/08/05 01:34:19;;;;;;;5.60;3.42;;;22.40;90.80;;;;;;5057955;28;20214;-65
2022/08/05 01:36:50;;;;;;;7.22;3.50;;;22.40;90.80;;;;;;5054165;28;20206;-66
2022/08/05 01:39:19;;;;;;;3.83;3.10;;;22.40;90.90;;;;;;5061091;28;20221;-65
2022/08/05 01:41:47;;;;;;;3.75;3.45;;;22.40;91.00;;;;;;5061383;28;21056;-64
2022/08/05 01:44:16;;;;;;;3.70;3.05;;;22.30;91.10;;;;;;5052819;28;20218;-65
2022/08/05 01:46:45;;;;;;;5.30;3.33;;;22.30;91.20;;;;;;5060287;28;20573;-64
2022/08/05 01:49:16;;;;;;;5.82;3.92;;;22.30;91.20;;;;;;5062962;28;20209;-64
2022/08/05 01:51:43;;;;;;;3.83;3.50;;;22.30;91.30;;;;;;5055613;28;20198;-66
2022/08/05 01:54:12;;;;;;;4.35;3.70;;;22.30;91.40;;;;;;5067650;28;20213;-64
2022/08/05 01:56:41;;;;;;;3.95;3.60;;;22.30;91.60;;;;;;5055674;28;20681;-65
2022/08/05 01:59:12;;;;;;;4.88;3.25;;;22.30;91.70;;;;;;5066093;28;20221;-65
2022/08/05 02:01:41;;;;;;;5.03;3.45;;;22.30;91.80;;;;;;5066416;28;20204;-67
2022/08/05 02:04:10;;;;;;;4.00;3.60;;;22.20;91.90;;;;;;5058982;28;20579;-65
2022/08/05 02:06:38;;;;;;;3.92;3.63;;;22.20;92.00;;;;;;5061861;28;20229;-64
2022/08/05 02:09:05;;;;;;;5.13;3.47;;;22.20;92.10;;;;;;5061056;28;20206;-64
2022/08/05 02:11:38;;;;;;;3.40;3.10;;;22.20;92.30;;;;;;5066507;28;20212;-65
2022/08/05 02:14:11;;;;;;;4.00;3.63;;;22.20;92.40;;;;;;5053470;28;20236;-65
2022/08/05 02:16:46;;;;;;;6.80;3.90;;;22.10;92.50;;;;;;5067172;28;20229;-64
2022/08/05 02:19:20;;;;;;;4.72;3.63;;;22.10;92.70;;;;;;5052976;28;20602;-65
2022/08/05 02:21:54;;;;;;;4.97;3.30;;;22.00;92.80;;;;;;5062846;28;20197;-65
2022/08/05 02:24:24;;;;;;;6.55;3.80;;;22.10;93.00;;;;;;5053860;28;20697;-65
2022/08/05 02:26:56;;;;;;;5.68;3.50;;;22.00;93.10;;;;;;5067081;28;20231;-64
2022/08/05 02:29:24;;;;;;;4.75;3.75;;;22.00;93.20;;;;;;5061487;28;20647;-64
2022/08/05 02:31:56;;;;;;;5.90;3.42;;;22.10;93.40;;;;;;5058652;28;20312;-65
2022/08/05 02:34:26;;;;;;;3.47;3.22;;;22.00;93.40;;;;;;5070761;28;20212;-65
2022/08/05 02:36:57;;;;;;;3.72;3.42;;;22.00;93.60;;;;;;5072717;28;20212;-64
2022/08/05 02:39:24;;;;;;;6.55;3.50;;;22.00;93.70;;;;;;5054165;28;20210;-65
2022/08/05 02:41:52;;;;;;;7.35;4.20;;;22.00;93.80;;;;;;5059298;28;20202;-65
2022/08/05 02:44:20;;;;;;;3.67;3.38;;;22.00;93.90;;;;;;5064366;28;20205;-65
2022/08/05 02:46:49;;;;;;;5.15;3.33;;;21.90;94.10;;;;;;5052384;28;20682;-65
2022/08/05 02:49:17;;;;;;;5.32;3.05;;;21.90;94.20;;;;;;5052807;28;20198;-64
2022/08/05 02:51:45;;;;;;;4.10;3.60;;;21.90;94.40;;;;;;5066706;28;20220;-64
2022/08/05 02:54:13;;;;;;;4.70;4.20;;;21.90;94.50;;;;;;5067932;28;20598;-64
2022/08/05 02:56:41;;;;;;;4.70;4.18;;;21.90;94.60;;;;;;5055005;28;20209;-64
2022/08/05 02:59:11;;;;;;;6.13;4.80;;;21.90;94.70;;;;;;5068736;28;20237;-64
2022/08/05 03:01:41;;;;;;;6.05;4.85;;;21.80;94.80;;;;;;5052873;28;20552;-65
2022/08/05 03:04:10;;;;;;;4.88;4.38;;;21.80;94.90;;;;;;5060173;28;20210;-66
2022/08/05 03:06:40;;;;;;;6.07;4.50;;;21.90;95.10;;;;;;5050166;28;20206;-64
2022/08/05 03:09:07;;;;;;;4.95;4.45;;;21.80;95.20;;;;;;5070129;28;20208;-65
2022/08/05 03:11:34;;;;;;;4.22;3.80;;;21.80;95.60;;;;;;5057948;28;20204;-65
2022/08/05 03:14:01;;;;;;;4.80;4.38;;;21.80;95.50;;;;;;5059264;28;20300;-65
2022/08/05 03:16:28;;;;;;;4.40;4.00;;;21.80;95.50;;;;;;5056705;28;20217;-64
2022/08/05 03:18:54;;;;;;;5.55;4.07;;;21.80;95.70;;;;;;5056200;28;20232;-65
2022/08/05 03:21:21;;;;;;;8.32;4.00;;;21.70;95.80;;;;;;5056435;28;20243;-64
2022/08/05 03:23:50;;;;;;;4.75;4.20;;;21.70;95.90;;;;;;5060975;28;20217;-65
2022/08/05 03:26:16;;;;;;;5.43;4.70;;;21.70;96.10;;;;;;5064334;28;20610;-64
2022/08/05 03:28:43;;;;;;;6.18;5.30;;;21.70;96.20;;;;;;5059687;28;20630;-64
2022/08/05 03:31:11;;;;;;;8.02;5.88;;;21.70;96.30;;;;;;5059368;28;20221;-64
2022/08/05 03:33:39;;;;;;;9.45;6.03;;;21.60;96.40;;;;;;5054387;28;20217;-65
2022/08/05 03:36:06;;;;;;;5.65;5.05;;;21.70;96.60;;;;;;5056340;28;20213;-65
2022/08/05 03:38:33;;;;;;;7.22;5.63;;;21.70;96.70;;;;;;5057566;28;20236;-64
2022/08/05 03:41:02;;;;;;;6.85;6.18;;;21.80;96.90;;;;;;5057150;28;20225;-65
2022/08/05 03:43:28;;;;;;;8.60;6.70;;;21.80;96.90;;;;;;5051458;28;20263;-65
2022/08/05 03:45:55;;;;;;;9.15;6.38;;;21.80;97.00;;;;;;5058286;28;20213;-66
2022/08/05 03:48:22;;;;;;;6.85;6.10;;;21.80;97.10;;;;;;5064781;28;20208;-65
2022/08/05 03:50:53;;;;;;;6.80;6.20;;;21.80;97.10;;;;;;5065409;28;20209;-66
2022/08/05 03:53:27;;;;;;;6.63;5.88;;;21.90;97.30;;;;;;5053536;28;20227;-65
2022/08/05 03:56:00;;;;;;;8.27;6.50;;;21.80;97.30;;;;;;5051105;28;20661;-64
2022/08/05 03:58:30;;;;;;;7.10;6.40;;;21.90;97.50;;;;;;5053198;28;20693;-64
2022/08/05 04:01:01;;;;;;;7.22;6.53;;;21.90;97.50;;;;;;5051708;28;20252;-64
2022/08/05 04:03:31;;;;;;;6.57;6.05;;;21.90;97.60;;;;;;5061501;28;20588;-64
2022/08/05 04:05:59;;;;;;;8.70;6.10;;;21.90;97.60;;;;;;5052032;28;20677;-64
2022/08/05 04:08:29;;;;;;;7.05;6.30;;;22.00;97.70;;;;;;5050889;28;20218;-65
2022/08/05 04:10:56;;;;;;;6.55;5.85;;;22.00;97.80;;;;;;5064271;28;20267;-65
2022/08/05 04:13:23;;;;;;;8.48;6.40;;;22.00;97.80;;;;;;5064516;28;20213;-64
2022/08/05 04:15:51;;;;;;;6.90;5.85;;;22.00;97.80;;;;;;5067341;28;20213;-64
2022/08/05 04:18:18;;;;;;;6.38;5.72;;;22.00;97.80;;;;;;5065176;28;20210;-64
2022/08/05 04:20:52;;;;;;;10.95;6.50;;;22.10;97.90;;;;;;5062195;28;20236;-64
2022/08/05 04:23:19;;;;;;;6.95;6.28;;;22.10;97.90;;;;;;5065137;28;20205;-65
2022/08/05 04:25:45;;;;;;;7.43;5.90;;;22.10;97.90;;;;;;5065024;28;20233;-64
2022/08/05 04:28:12;;;;;;;13.15;6.53;;;22.10;98.10;;;;;;5058477;28;20198;-65
2022/08/05 04:30:39;;;;;;;7.43;5.57;;;22.10;98.20;;;;;;5056643;28;20204;-64
2022/08/05 04:33:07;;;;;;;6.85;6.15;;;22.10;98.30;;;;;;5060030;28;20214;-64
2022/08/05 04:35:34;;;;;;;9.18;6.72;;;22.10;98.30;;;;;;5063815;28;20220;-65
2022/08/05 04:38:00;;;;;;;7.22;6.55;;;22.10;98.40;;;;;;5050389;28;20228;-64
2022/08/05 04:40:27;;;;;;;9.30;6.47;;;22.10;98.50;;;;;;5057789;28;20220;-64
2022/08/05 04:42:54;;;;;;;8.32;6.97;;;22.20;98.60;;;;;;5057520;28;20212;-64
2022/08/05 04:45:24;;;;;;;10.82;6.40;;;22.20;98.70;;;;;;5067330;28;20639;-64
2022/08/05 04:47:51;;;;;;;7.63;6.93;;;22.20;98.80;;;;;;5050451;28;20197;-65
2022/08/05 04:50:19;;;;;;;8.80;7.35;;;22.20;98.80;;;;;;5054292;28;20571;-64
2022/08/05 04:52:46;;;;;;;7.80;6.95;;;22.20;98.90;;;;;;5060997;28;20212;-64
2022/08/05 04:55:12;;;;;;;8.98;7.07;;;22.30;99.00;;;;;;5049345;28;20217;-64
2022/08/05 04:57:39;;;;;;;9.77;7.45;;;22.30;99.10;;;;;;5052593;28;20532;-65
2022/08/05 05:00:07;;;;;;;7.30;6.63;;;22.30;99.10;;;;;;5054411;28;20307;-65
2022/08/05 05:02:34;;;;;;;8.70;7.80;;;22.40;99.10;;;;;;5057735;28;20571;-65
2022/08/05 05:05:01;;;;;;;8.55;7.72;;;22.40;99.10;;;;;;5056578;28;20213;-64
2022/08/05 05:07:29;;;;;;;10.35;7.78;;;22.40;99.10;;;;;;5061847;28;20221;-65
2022/08/05 05:09:56;;;;;;;8.45;7.65;;;22.50;99.10;;;;;;5061108;28;20198;-64
2022/08/05 05:12:23;;;;;;;8.30;7.60;;;22.50;99.10;;;;;;5058352;28;20210;-64
2022/08/05 05:14:49;;;;;;;9.32;7.47;;;22.60;99.20;;;;;;5068320;28;20197;-70
2022/08/05 05:17:16;;;;;;;10.93;7.43;;;22.70;99.20;;;;;;5067376;28;20249;-72
2022/08/05 05:19:44;;;;;;;11.55;7.68;;;22.70;99.10;;;;;;5064067;28;20894;-70
2022/08/05 05:22:11;;;;;;;11.77;9.40;;;22.70;99.10;;;;;;5070718;28;20209;-71
2022/08/05 05:24:39;;;;;;;11.15;8.75;;;22.80;99.10;;;;;;5071501;28;20317;-71
2022/08/05 05:27:06;;;;;;;10.45;8.95;;;22.80;99.10;;;;;;5063414;28;20204;-68
2022/08/05 05:29:32;;;;;;;12.05;9.13;;;22.80;99.10;;;;;;5067259;28;20461;-74
2022/08/05 05:31:59;;;;;;;8.00;7.13;;;22.90;99.20;;;;;;5066986;28;20554;-71
2022/08/05 05:34:26;;;;;;;7.82;7.13;;;23.00;99.20;;;;;;5066049;28;20214;-72
2022/08/05 05:36:53;;;;;;;9.95;7.10;;;23.00;99.00;;;;;;5060777;28;20205;-71
2022/08/05 05:39:20;;;;;;;8.43;7.63;;;23.10;99.00;;;;;;5056022;28;20199;-72
2022/08/05 05:41:48;;;;;;;9.45;7.45;;;23.20;99.00;;;;;;5054515;28;20206;-71
2022/08/05 05:44:14;;;;;;;7.88;7.15;;;23.20;98.90;;;;;;5055125;28;20216;-72
2022/08/05 05:46:41;;;;;;;7.85;7.15;;;23.30;98.80;;;;;;5063241;28;20241;-71
2022/08/05 05:49:08;;;;;;;7.15;6.45;;;23.30;98.60;;;;;;5060201;28;20206;-70
2022/08/05 05:51:35;;;;;;;7.95;7.05;;;23.30;98.60;;;;;;5064770;28;20205;-71
2022/08/05 05:54:01;;;;;;;7.20;6.50;;;23.40;98.50;;;;;;5061945;28;20561;-73
2022/08/05 05:56:30;;;;;;;11.85;7.65;;;23.40;98.50;;;;;;5066830;28;20665;-71
2022/08/05 05:58:58;;;;;;;7.22;6.53;;;23.50;98.60;;;;;;5072488;28;20211;-72
2022/08/05 06:01:25;;;;;;;7.47;6.70;;;23.60;98.90;;;;;;5067033;28;20706;-72
2022/08/05 06:03:51;;;;;;;8.30;7.07;;;23.60;98.60;;;;;;5062965;28;20227;-69
2022/08/05 06:06:18;;;;;;;8.38;6.90;;;23.70;98.70;;;;;;5067871;28;20220;-74
2022/08/05 06:08:45;;;;;;;7.30;6.50;;;23.80;98.50;;;;;;5067980;28;20208;-68
2022/08/05 06:11:12;;;;;;;11.27;6.32;;;23.80;98.50;;;;;;5071598;28;20634;-68
2022/08/05 06:13:38;;;;;;;7.13;6.40;;;23.90;98.50;;;;;;5066886;28;20209;-69
2022/08/05 06:16:07;;;;;;;7.13;5.63;;;23.90;98.30;;;;;;5062299;28;20259;-68
2022/08/05 06:18:33;;;;;;;7.22;5.57;;;23.90;98.20;;;;;;5056511;28;20202;-68
2022/08/05 06:21:00;;;;;;;6.38;5.85;;;24.00;98.20;;;;;;5063469;28;20216;-69
2022/08/05 06:23:27;;;;;;;6.57;5.90;;;24.10;98.20;;;;;;5073219;28;20209;-67
2022/08/05 06:25:54;;;;;;;7.32;5.55;;;24.20;98.10;;;;;;5071017;28;20233;-68
2022/08/05 06:28:21;;;;;;;8.23;5.65;;;24.20;98.10;;;;;;5060617;28;20608;-69
2022/08/05 06:30:48;;;;;;;6.30;5.70;;;24.30;98.10;;;;;;5053825;28;20217;-68
2022/08/05 06:33:16;;;;;;;8.40;5.57;;;24.40;98.00;;;;;;5054953;28;20216;-69
2022/08/05 06:35:43;;;;;;;6.57;5.55;;;24.60;97.80;;;;;;5063954;28;20216;-68
2022/08/05 06:38:10;;;;;;;7.20;5.85;;;24.60;98.10;;;;;;5066174;28;20398;-68
2022/08/05 06:40:36;;;;;;;10.55;5.35;;;24.60;97.70;;;;;;5060178;28;20236;-68
2022/08/05 06:43:03;;;;;;;7.22;5.78;;;24.70;97.70;;;;;;5059202;28;20657;-68
2022/08/05 06:45:30;;;;;;;7.10;5.30;;;24.80;97.60;;;;;;5063929;28;20609;-72
2022/08/05 06:47:57;;;;;;;5.60;5.10;;;24.90;97.50;;;;;;5065686;28;20213;-73
2022/08/05 06:50:26;;;;;;;6.72;4.70;;;25.00;97.50;;;;;;5060912;28;20312;-72
2022/08/05 06:52:53;;;;;;;5.22;4.72;;;25.00;97.40;;;;;;5072320;28;20209;-73
2022/08/05 06:55:20;;;;;;;6.18;4.88;;;25.10;97.30;;;;;;5066258;28;20209;-73
2022/08/05 06:57:47;;;;;;;6.38;5.05;;;25.20;97.00;;;;;;5068661;28;20216;-77
2022/08/05 07:00:17;;;;;;;5.20;4.70;;;25.20;96.90;;;;;;5066159;28;20231;-75
2022/08/05 07:02:44;;;;;;;5.15;4.65;;;25.30;96.90;;;;;;5074663;28;20278;-78
2022/08/05 07:05:12;;;;;;;6.53;4.75;;;25.30;96.80;;;;;;5072717;28;20209;-68
2022/08/05 07:07:41;;;;;;;5.47;4.97;;;25.40;96.80;;;;;;5068925;28;20570;-69
2022/08/05 07:10:09;;;;;;;11.38;5.03;;;25.40;96.70;;;;;;5073698;28;20241;-74
2022/08/05 07:18:05;;;;;;;7.88;4.32;;;25.60;96.30;;;;;;5059225;28;20257;-72
2022/08/05 07:20:32;;;;;;;5.20;4.70;;;25.70;96.30;;;;;;5064445;28;20578;-72
2022/08/05 07:23:00;;;;;;;5.68;4.15;;;25.80;96.30;;;;;;5068801;28;20213;-73
2022/08/05 07:25:27;;;;;;;7.05;4.07;;;25.90;96.10;;;;;;5065193;28;20924;-73
2022/08/05 07:27:55;;;;;;;6.30;3.55;;;26.00;95.80;;;;;;5050907;28;20667;-71
2022/08/05 07:30:22;;;;;;;7.10;4.05;;;26.00;95.60;;;;;;5058014;28;20201;-72
2022/08/05 07:32:48;;;;;;;5.80;4.05;;;26.20;95.60;;;;;;5066264;28;20216;-73
2022/08/05 07:35:15;;;;;;;3.60;3.30;;;26.40;95.30;;;;;;5062526;28;20223;-73
2022/08/05 07:37:42;;;;;;;4.68;4.10;;;26.40;94.70;;;;;;5065851;28;20205;-73
2022/08/05 07:40:11;;;;;;;7.20;3.72;;;26.50;94.50;;;;;;5061881;28;20212;-71
2022/08/05 07:42:38;;;;;;;3.75;3.47;;;26.50;94.60;;;;;;5056031;28;20647;-69
2022/08/05 07:45:05;;;;;;;7.25;3.60;;;26.60;94.40;;;;;;5063778;28;20270;-72
2022/08/05 07:47:32;;;;;;;4.45;3.60;;;26.70;94.30;;;;;;5069539;28;20577;-70
2022/08/05 07:49:59;;;;;;;4.13;3.38;;;26.80;94.10;;;;;;5064858;28;20259;-72
2022/08/05 07:52:26;;;;;;;6.72;3.42;;;26.90;93.70;;;;;;5066421;28;20213;-70
2022/08/05 07:54:52;;;;;;;4.57;3.35;;;27.00;93.30;;;;;;5065804;28;20220;-71
2022/08/05 07:57:21;;;;;;;3.75;3.45;;;27.10;93.30;;;;;;5058152;28;20202;-70
2022/08/05 07:59:47;;;;;;;3.63;3.33;;;27.10;93.00;;;;;;5064631;28;20571;-71
2022/08/05 08:02:14;;;;;;;3.50;3.20;;;27.20;93.10;;;;;;5053725;28;20226;-73
2022/08/05 08:04:41;;;;;;;3.72;3.42;;;27.40;92.70;;;;;;5058192;28;20692;-70
2022/08/05 08:07:08;;;;;;;4.00;3.25;;;27.40;92.60;;;;;;5066892;28;20693;-73
2022/08/05 08:09:35;;;;;;;4.60;3.53;;;27.50;92.30;;;;;;5052314;28;20224;-73
2022/08/05 08:12:02;;;;;;;4.40;3.67;;;27.60;92.10;;;;;;5061414;28;20208;-68
2022/08/05 08:14:30;;;;;;;9.07;5.05;;;27.70;91.70;;;;;;5062210;28;20299;-68
2022/08/05 08:16:57;;;;;;;6.57;3.50;;;27.80;91.40;;;;;;5065931;28;20243;-67
2022/08/05 08:19:23;;;;;;;8.30;4.88;;;27.80;91.40;;;;;;5061241;28;20300;-67
2022/08/05 08:21:50;;;;;;;3.95;3.55;;;27.90;90.90;;;;;;5069626;28;20224;-69
2022/08/05 08:24:17;;;;;;;13.07;7.60;;;28.00;90.70;;;;;;5061865;28;20205;-68
2022/08/05 08:26:43;;;;;;;5.28;3.97;;;28.00;90.40;;;;;;5066538;28;20212;-68
2022/08/05 08:29:10;;;;;;;3.33;3.03;;;28.10;90.40;;;;;;5063861;28;20205;-69
2022/08/05 08:31:38;;;;;;;3.50;3.20;;;28.20;90.20;;;;;;5063202;28;20759;-69
2022/08/05 08:34:06;;;;;;;9.68;4.13;;;28.30;90.30;;;;;;5062373;28;20673;-69
2022/08/05 08:36:33;;;;;;;3.60;3.30;;;28.30;90.00;;;;;;5066249;28;20203;-69
2022/08/05 08:39:00;;;;;;;4.00;3.10;;;28.50;90.00;;;;;;5071871;28;20205;-68
2022/08/05 08:41:29;;;;;;;3.58;3.00;;;28.60;89.40;;;;;;5069177;28;20320;-68
2022/08/05 08:43:56;;;;;;;3.35;3.05;;;28.70;88.60;;;;;;5067932;28;20206;-68
2022/08/05 08:46:26;;;;;;;5.68;2.80;;;28.80;88.20;;;;;;5061005;28;20290;-70
2022/08/05 08:48:55;;;;;;;3.53;2.80;;;28.80;87.70;;;;;;5073519;28;20568;-68
2022/08/05 08:51:23;;;;;;;3.30;3.00;;;28.80;87.50;;;;;;5063255;28;20558;-68
2022/08/05 08:53:51;;;;;;;4.63;3.17;;;29.00;86.70;;;;;;5069062;28;20198;-69
2022/08/05 08:56:19;;;;;;;5.50;3.55;;;29.10;86.20;;;;;;5062011;28;20201;-68
2022/08/05 08:58:46;;;;;;;3.80;3.28;;;29.20;85.50;;;;;;5064346;28;20209;-68
2022/08/05 09:01:13;;;;;;;3.22;2.92;;;29.30;85.80;;;;;;5072945;28;20228;-69
2022/08/05 09:03:41;;;;;;;3.42;2.40;;;29.40;85.40;;;;;;5069487;28;20201;-67
2022/08/05 09:06:09;;;;;;;5.15;3.15;;;29.60;84.70;;;;;;5065961;28;20211;-67
2022/08/05 09:08:36;;;;;;;4.07;3.00;;;29.70;84.00;;;;;;5062225;28;20209;-68
2022/08/05 09:11:02;;;;;;;3.10;2.80;;;29.80;83.80;;;;;;5069633;28;20217;-69
2022/08/05 09:13:29;;;;;;;3.33;2.28;;;30.00;83.00;;;;;;5068286;28;20205;-68
2022/08/05 09:15:57;;;;;;;3.70;2.63;;;30.10;82.40;;;;;;5066539;28;20244;-68
2022/08/05 09:18:24;;;;;;;5.75;2.40;;;30.30;80.90;;;;;;5062564;28;20213;-68
2022/08/05 09:20:51;;;;;;;4.75;2.80;;;30.40;80.20;;;;;;5062637;28;20232;-69
2022/08/05 09:23:20;;;;;;;5.43;2.40;;;30.40;79.80;;;;;;5068535;28;20272;-69
2022/08/05 09:25:49;;;;;;;14.27;3.40;;;30.50;79.10;;;;;;5065179;28;20240;-69
2022/08/05 09:28:17;;;;;;;6.97;2.97;;;30.50;78.70;;;;;;5060007;28;20320;-67
2022/08/05 09:30:52;;;;;;;3.05;2.65;;;30.70;78.40;;;;;;5060079;28;20206;-69
2022/08/05 09:33:18;;;;;;;4.32;2.55;;;30.80;77.90;;;;;;5060581;28;20197;-68
2022/08/05 09:35:55;;;;;;;2.72;2.38;;;31.00;77.40;;;;;;5068064;28;20198;-69
2022/08/05 09:38:24;;;;;;;4.63;2.88;;;31.10;77.10;;;;;;5057314;28;20200;-68
2022/08/05 09:40:52;;;;;;;5.72;2.80;;;31.40;76.60;;;;;;5064496;28;20199;-69
2022/08/05 09:43:30;;;;;;;5.30;2.72;;;31.50;76.20;;;;;;5063819;28;20209;-67
2022/08/05 09:45:57;;;;;;;2.75;2.55;;;31.70;75.60;;;;;;5071185;28;20205;-71
2022/08/05 09:48:26;;;;;;;2.65;2.20;;;31.80;75.10;;;;;;5067992;28;20247;-68
2022/08/05 09:50:55;;;;;;;5.45;2.30;;;31.90;74.30;;;;;;5064499;28;20217;-69
2022/08/05 09:53:25;;;;;;;4.00;2.50;;;32.00;73.60;;;;;;5062100;28;20219;-70
2022/08/05 09:55:53;;;;;;;3.78;2.50;;;32.00;73.20;;;;;;5058417;28;20206;-68
2022/08/05 09:58:20;;;;;;;3.33;3.03;;;32.20;73.20;;;;;;5067090;28;20213;-72
2022/08/05 10:00:57;;;;;;;4.53;2.35;;;32.40;72.90;;;;;;5067247;28;20216;-71
2022/08/05 10:03:24;;;;;;;3.83;2.50;;;32.60;71.10;;;;;;5065595;28;20200;-70
2022/08/05 10:06:08;;;;;;;2.80;2.40;;;32.60;70.80;;;;;;5064130;28;20212;-72
2022/08/05 10:08:38;;;;;;;2.65;2.45;;;32.70;69.80;;;;;;5073837;28;20209;-71
2022/08/05 10:11:14;;;;;;;3.80;2.60;;;32.60;69.60;;;;;;5062919;28;20202;-71
2022/08/05 10:13:41;;;;;;;2.63;2.42;;;32.70;69.40;;;;;;5067128;28;20208;-70
2022/08/05 10:16:28;;;;;;;2.53;2.33;;;32.80;68.90;;;;;;5067165;28;20236;-68
2022/08/05 10:18:55;;;;;;;3.08;2.78;;;32.90;68.20;;;;;;5067174;28;20205;-69
2022/08/05 10:21:22;;;;;;;4.20;2.10;;;33.00;67.90;;;;;;5068227;28;20571;-67
2022/08/05 10:23:51;;;;;;;2.83;2.33;;;33.30;67.60;;;;;;5064037;28;20210;-67
2022/08/05 10:26:18;;;;;;;3.55;3.22;;;33.40;66.40;;;;;;5065891;28;20721;-69
2022/08/05 10:28:46;;;;;;;2.50;2.10;;;33.40;66.20;;;;;;5060251;28;20211;-67
2022/08/05 10:31:14;;;;;;;6.75;2.50;;;33.50;65.30;;;;;;5055586;28;20210;-70
2022/08/05 10:33:42;;;;;;;3.03;2.40;;;33.50;65.30;;;;;;5056596;28;20205;-69
2022/08/05 10:36:09;;;;;;;3.25;2.38;;;33.60;65.40;;;;;;5058507;28;20694;-69
2022/08/05 10:38:37;;;;;;;3.15;2.30;;;33.70;64.70;;;;;;5058605;28;20213;-68
2022/08/05 10:41:11;;;;;;;2.58;2.38;;;33.70;64.70;;;;;;5062576;28;20296;-70
2022/08/05 10:43:47;;;;;;;3.17;2.30;;;33.80;64.60;;;;;;5060485;28;20205;-68
2022/08/05 10:46:16;;;;;;;2.63;2.10;;;33.90;64.50;;;;;;5058492;28;20224;-71
2022/08/05 10:48:44;;;;;;;5.10;2.83;;;34.00;64.30;;;;;;5055104;28;20662;-68
2022/08/05 10:51:13;;;;;;;2.53;2.33;;;34.20;63.90;;;;;;5059047;28;20211;-70
2022/08/05 10:53:42;;;;;;;3.42;2.65;;;34.20;63.10;;;;;;5058944;28;20213;-69
2022/08/05 10:56:13;;;;;;;2.63;2.42;;;34.30;62.50;;;;;;5054697;28;20686;-69
2022/08/05 10:59:03;;;;;;;4.82;2.50;;;34.30;61.30;;;;;;5053829;28;20247;-68
2022/08/05 11:01:30;;;;;;;2.60;2.22;;;34.10;61.60;;;;;;5053104;28;20263;-68
2022/08/05 11:04:10;;;;;;;2.30;2.10;;;34.00;61.30;;;;;;5053335;28;20206;-70
2022/08/05 11:07:05;;;;;;;2.53;2.33;;;34.00;61.60;;;;;;5056731;28;20208;-69
2022/08/05 11:09:39;;;;;;;2.33;2.13;;;34.10;62.50;;;;;;5061390;28;20760;-69
2022/08/05 11:12:46;;;;;;;4.18;2.85;;;34.30;61.90;;;;;;5062604;28;20225;-69
2022/08/05 11:15:21;;;;;;;3.53;2.60;;;34.40;62.30;;;;;;5067215;28;20209;-69
2022/08/05 11:17:49;;;;;;;9.77;2.92;;;34.50;62.00;;;;;;5054370;28;20218;-68
2022/08/05 11:20:40;;;;;;;2.60;2.40;;;34.50;61.40;;;;;;5058850;28;20577;-68
2022/08/05 11:23:26;;;;;;;3.75;2.42;;;34.40;60.80;;;;;;5054144;28;20649;-69
2022/08/05 11:26:07;;;;;;;3.60;2.60;;;34.20;61.00;;;;;;5055288;28;20717;-67
2022/08/05 11:28:43;;;;;;;5.45;2.72;;;34.00;61.90;;;;;;5056358;28;20197;-69
2022/08/05 11:31:21;;;;;;;5.47;2.60;;;33.80;62.70;;;;;;5056458;28;20213;-68
2022/08/05 11:33:57;;;;;;;3.45;3.13;;;33.70;62.80;;;;;;5053723;28;20209;-68
2022/08/05 11:36:41;;;;;;;2.65;2.45;;;33.80;63.00;;;;;;5055862;28;20317;-68
2022/08/05 11:39:08;;;;;;;3.10;2.65;;;33.90;63.00;;;;;;5056545;28;20216;-69
2022/08/05 11:41:35;;;;;;;3.42;2.55;;;34.10;62.10;;;;;;5064450;28;20232;-67
2022/08/05 11:44:06;;;;;;;5.90;2.70;;;34.30;61.50;;;;;;5068134;28;20213;-69
2022/08/05 11:46:34;;;;;;;3.05;2.50;;;34.30;61.10;;;;;;5054034;28;20206;-69
2022/08/05 11:49:02;;;;;;;5.30;2.50;;;34.30;61.20;;;;;;5053836;28;20201;-69
2022/08/05 11:51:30;;;;;;;3.58;2.60;;;34.30;61.40;;;;;;5059030;28;20209;-68
2022/08/05 11:53:59;;;;;;;3.45;2.70;;;34.30;60.90;;;;;;5056189;28;20670;-67
2022/08/05 11:56:26;;;;;;;4.47;2.50;;;34.40;60.30;;;;;;5052224;28;20253;-69
2022/08/05 11:58:53;;;;;;;4.85;2.53;;;34.50;59.90;;;;;;5061651;28;20279;-69
2022/08/05 12:01:22;;;;;;;2.97;2.67;;;34.70;59.60;;;;;;5071185;28;20923;-70
2022/08/05 12:03:51;;;;;;;2.95;2.60;;;34.80;59.80;;;;;;5069045;28;20291;-69
2022/08/05 12:06:20;;;;;;;2.42;2.22;;;34.80;59.50;;;;;;5063591;28;20213;-69
2022/08/05 12:08:48;;;;;;;5.63;2.78;;;34.90;59.70;;;;;;5061806;28;20216;-68
2022/08/05 12:11:19;;;;;;;5.10;2.80;;;34.90;59.70;;;;;;5070239;28;20209;-69
2022/08/05 12:13:59;;;;;;;3.28;2.92;;;34.80;59.10;;;;;;5065145;28;20665;-69
2022/08/05 12:16:32;;;;;;;6.13;3.22;;;34.70;59.40;;;;;;5060618;28;20603;-69
2022/08/05 12:18:59;;;;;;;3.63;2.60;;;34.60;59.40;;;;;;5068788;28;20205;-69
2022/08/05 12:21:28;;;;;;;3.63;3.33;;;34.50;60.30;;;;;;5066657;28;20280;-72
2022/08/05 12:23:58;;;;;;;2.90;2.70;;;34.50;59.70;;;;;;5051417;28;20210;-69
2022/08/05 12:26:31;;;;;;;3.30;3.00;;;34.60;59.50;;;;;;5054557;28;20672;-70
2022/08/05 12:28:58;;;;;;;6.00;3.03;;;34.60;59.60;;;;;;5054162;28;20258;-69
2022/08/05 12:31:27;;;;;;;3.20;2.80;;;34.50;59.40;;;;;;5053291;28;20650;-68
2022/08/05 12:33:56;;;;;;;4.60;2.95;;;34.40;59.40;;;;;;5057901;28;20703;-70
2022/08/05 12:36:23;;;;;;;2.78;2.58;;;34.20;59.70;;;;;;5052293;28;20757;-68
2022/08/05 12:38:50;;;;;;;7.57;3.83;;;33.90;59.60;;;;;;5066401;28;20698;-67
2022/08/05 12:41:17;;;;;;;3.80;3.33;;;33.80;60.30;;;;;;5062969;28;20657;-69
2022/08/05 12:43:51;;;;;;;5.68;3.60;;;33.80;60.50;;;;;;5065786;28;20610;-71
2022/08/05 12:46:22;;;;;;;3.75;3.50;;;33.70;60.80;;;;;;5063082;28;20208;-69
2022/08/05 12:48:59;;;;;;;3.47;3.17;;;33.60;61.10;;;;;;5062327;28;20206;-69
2022/08/05 12:51:27;;;;;;;3.63;3.17;;;33.60;61.50;;;;;;5059202;28;20258;-69
2022/08/05 12:53:59;;;;;;;3.53;3.22;;;33.70;61.30;;;;;;5065559;28;20205;-70
2022/08/05 12:56:26;;;;;;;3.97;3.22;;;33.70;60.90;;;;;;5067157;28;20267;-72
2022/08/05 12:59:12;;;;;;;3.40;3.17;;;33.80;61.00;;;;;;5071096;28;20255;-69
2022/08/05 13:01:39;;;;;;;3.97;3.65;;;33.90;60.00;;;;;;5069172;28;20267;-69